Montevideo, Uruguay
Current Conditions -  °F | °C
As of 3:00 PM on Saturday 25 Oct 2014 (Local Time) from SUMU Reporting Station
Few Clouds Few Clouds  
Wind Chill: 75°   Ceiling: Unl
Heat Index: 75°   Visibility: 6mi
Dew Point: 66°   Wind: 13mph
Humidity: 73%   Direction: 110°ESE
Pressure: 29.91"   Gusts: NA
Location:  34.87°S, 56.17°W
Report Text: SUMU 251800Z 11011KT 9999 FEW030 24/19 Q1013 TEMPO BR
Loading
Personal Weather Stations






























Interactive Weather Map
Tropical Storm Tracking
New forecast layout! Learn more

10-Day Weather Forecast

Advertisements
Track Severe Weather on mobile